sensor_id;sensor_type;location;lat;lon;timestamp;temperature;humidity
25352;DHT22;13304;48.464;8.712;2022-10-31T00:02:00;15.10;80.60
25352;DHT22;13304;48.464;8.712;2022-10-31T00:04:26;15.10;80.60
25352;DHT22;13304;48.464;8.712;2022-10-31T00:06:51;15.00;80.70
25352;DHT22;13304;48.464;8.712;2022-10-31T00:09:17;15.10;80.70
25352;DHT22;13304;48.464;8.712;2022-10-31T00:11:43;15.00;80.70
25352;DHT22;13304;48.464;8.712;2022-10-31T00:14:08;15.00;80.80
25352;DHT22;13304;48.464;8.712;2022-10-31T00:16:34;15.00;80.80
25352;DHT22;13304;48.464;8.712;2022-10-31T00:19:00;15.00;80.90
25352;DHT22;13304;48.464;8.712;2022-10-31T00:21:26;14.90;80.80
25352;DHT22;13304;48.464;8.712;2022-10-31T00:23:53;14.90;80.80
25352;DHT22;13304;48.464;8.712;2022-10-31T00:26:19;14.90;80.40
25352;DHT22;13304;48.464;8.712;2022-10-31T00:28:45;14.90;80.70
25352;DHT22;13304;48.464;8.712;2022-10-31T00:31:12;14.90;80.80
25352;DHT22;13304;48.464;8.712;2022-10-31T00:33:38;14.90;80.70
25352;DHT22;13304;48.464;8.712;2022-10-31T00:36:05;14.80;80.80
25352;DHT22;13304;48.464;8.712;2022-10-31T00:38:31;14.80;80.90
25352;DHT22;13304;48.464;8.712;2022-10-31T00:40:56;14.80;80.90
25352;DHT22;13304;48.464;8.712;2022-10-31T00:43:22;14.80;80.90
25352;DHT22;13304;48.464;8.712;2022-10-31T00:45:48;14.70;80.60
25352;DHT22;13304;48.464;8.712;2022-10-31T00:48:13;14.70;80.70
25352;DHT22;13304;48.464;8.712;2022-10-31T00:50:39;14.70;80.80
25352;DHT22;13304;48.464;8.712;2022-10-31T00:53:05;14.70;80.90
25352;DHT22;13304;48.464;8.712;2022-10-31T00:55:31;14.70;81.00
25352;DHT22;13304;48.464;8.712;2022-10-31T00:57:57;14.70;81.10
25352;DHT22;13304;48.464;8.712;2022-10-31T01:00:22;14.60;81.20
25352;DHT22;13304;48.464;8.712;2022-10-31T01:02:48;14.60;81.20
25352;DHT22;13304;48.464;8.712;2022-10-31T01:05:13;14.60;81.10
25352;DHT22;13304;48.464;8.712;2022-10-31T01:07:39;14.60;81.20
25352;DHT22;13304;48.464;8.712;2022-10-31T01:10:05;14.60;81.30
25352;DHT22;13304;48.464;8.712;2022-10-31T01:12:38;14.60;81.30
25352;DHT22;13304;48.464;8.712;2022-10-31T01:15:04;14.60;81.30
25352;DHT22;13304;48.464;8.712;2022-10-31T01:17:30;14.60;81.30
25352;DHT22;13304;48.464;8.712;2022-10-31T01:19:55;14.60;81.30
25352;DHT22;13304;48.464;8.712;2022-10-31T01:22:21;14.60;81.30
25352;DHT22;13304;48.464;8.712;2022-10-31T01:24:46;14.60;81.40
25352;DHT22;13304;48.464;8.712;2022-10-31T01:27:12;14.50;81.50
25352;DHT22;13304;48.464;8.712;2022-10-31T01:29:37;14.50;81.60
25352;DHT22;13304;48.464;8.712;2022-10-31T01:32:03;14.50;81.70
25352;DHT22;13304;48.464;8.712;2022-10-31T01:34:29;14.50;81.60
25352;DHT22;13304;48.464;8.712;2022-10-31T01:36:54;14.50;81.70
25352;DHT22;13304;48.464;8.712;2022-10-31T01:39:20;14.50;81.80
25352;DHT22;13304;48.464;8.712;2022-10-31T01:41:47;14.50;81.80
25352;DHT22;13304;48.464;8.712;2022-10-31T01:46:44;14.50;81.80
25352;DHT22;13304;48.464;8.712;2022-10-31T01:49:11;14.50;81.90
25352;DHT22;13304;48.464;8.712;2022-10-31T01:51:40;14.50;81.90
25352;DHT22;13304;48.464;8.712;2022-10-31T01:54:08;14.50;81.90
25352;DHT22;13304;48.464;8.712;2022-10-31T01:56:36;14.50;81.90
25352;DHT22;13304;48.464;8.712;2022-10-31T01:59:03;14.50;81.80
25352;DHT22;13304;48.464;8.712;2022-10-31T02:01:31;14.50;81.80
25352;DHT22;13304;48.464;8.712;2022-10-31T02:03:56;14.50;81.70
25352;DHT22;13304;48.464;8.712;2022-10-31T02:06:42;14.40;81.70
25352;DHT22;13304;48.464;8.712;2022-10-31T02:09:10;14.40;81.70
25352;DHT22;13304;48.464;8.712;2022-10-31T02:11:35;14.40;81.70
25352;DHT22;13304;48.464;8.712;2022-10-31T02:14:02;14.40;81.80
25352;DHT22;13304;48.464;8.712;2022-10-31T02:16:28;14.40;81.70
25352;DHT22;13304;48.464;8.712;2022-10-31T02:18:54;14.40;81.70
25352;DHT22;13304;48.464;8.712;2022-10-31T02:21:24;14.40;81.70
25352;DHT22;13304;48.464;8.712;2022-10-31T02:24:12;14.30;81.70
25352;DHT22;13304;48.464;8.712;2022-10-31T02:26:46;14.30;81.80
25352;DHT22;13304;48.464;8.712;2022-10-31T02:32:05;14.30;81.80
25352;DHT22;13304;48.464;8.712;2022-10-31T02:37:41;14.30;81.70
25352;DHT22;13304;48.464;8.712;2022-10-31T02:42:44;14.20;81.60
25352;DHT22;13304;48.464;8.712;2022-10-31T02:47:41;14.20;81.40
25352;DHT22;13304;48.464;8.712;2022-10-31T02:50:41;14.20;81.40
25352;DHT22;13304;48.464;8.712;2022-10-31T02:53:00;14.10;81.10
25352;DHT22;13304;48.464;8.712;2022-10-31T02:57:52;14.00;80.80
25352;DHT22;13304;48.464;8.712;2022-10-31T03:00:19;14.00;80.90
25352;DHT22;13304;48.464;8.712;2022-10-31T03:08:15;13.90;80.80
25352;DHT22;13304;48.464;8.712;2022-10-31T03:10:43;13.90;81.10
25352;DHT22;13304;48.464;8.712;2022-10-31T03:16:02;13.80;81.10
25352;DHT22;13304;48.464;8.712;2022-10-31T03:18:32;13.80;81.30
25352;DHT22;13304;48.464;8.712;2022-10-31T03:21:00;13.80;81.40
25352;DHT22;13304;48.464;8.712;2022-10-31T03:23:26;13.70;81.40
25352;DHT22;13304;48.464;8.712;2022-10-31T03:25:53;13.70;81.50
25352;DHT22;13304;48.464;8.712;2022-10-31T03:28:22;13.70;81.50
25352;DHT22;13304;48.464;8.712;2022-10-31T03:30:49;13.70;81.70
25352;DHT22;13304;48.464;8.712;2022-10-31T03:33:17;13.70;81.90
25352;DHT22;13304;48.464;8.712;2022-10-31T03:35:44;13.70;81.90
25352;DHT22;13304;48.464;8.712;2022-10-31T03:38:12;13.70;82.00
25352;DHT22;13304;48.464;8.712;2022-10-31T03:40:38;13.70;81.90
25352;DHT22;13304;48.464;8.712;2022-10-31T03:43:07;13.70;82.00
25352;DHT22;13304;48.464;8.712;2022-10-31T03:45:36;13.70;82.00
25352;DHT22;13304;48.464;8.712;2022-10-31T03:48:03;13.70;81.90
25352;DHT22;13304;48.464;8.712;2022-10-31T03:50:31;13.70;81.90
25352;DHT22;13304;48.464;8.712;2022-10-31T03:53:04;13.70;81.90
25352;DHT22;13304;48.464;8.712;2022-10-31T03:55:32;13.60;81.90
25352;DHT22;13304;48.464;8.712;2022-10-31T03:58:05;13.60;81.90
25352;DHT22;13304;48.464;8.712;2022-10-31T04:00:33;13.60;81.90
25352;DHT22;13304;48.464;8.712;2022-10-31T04:03:01;13.60;82.00
25352;DHT22;13304;48.464;8.712;2022-10-31T04:05:29;13.60;82.00
25352;DHT22;13304;48.464;8.712;2022-10-31T04:07:55;13.60;82.00
25352;DHT22;13304;48.464;8.712;2022-10-31T04:10:22;13.60;82.00
25352;DHT22;13304;48.464;8.712;2022-10-31T04:12:50;13.60;82.00
25352;DHT22;13304;48.464;8.712;2022-10-31T04:15:17;13.60;82.00
25352;DHT22;13304;48.464;8.712;2022-10-31T04:17:44;13.60;82.00
25352;DHT22;13304;48.464;8.712;2022-10-31T04:20:10;13.60;82.00
25352;DHT22;13304;48.464;8.712;2022-10-31T04:22:36;13.60;82.10
25352;DHT22;13304;48.464;8.712;2022-10-31T04:25:02;13.60;82.10
25352;DHT22;13304;48.464;8.712;2022-10-31T04:27:27;13.60;82.20
25352;DHT22;13304;48.464;8.712;2022-10-31T04:29:53;13.60;82.10
25352;DHT22;13304;48.464;8.712;2022-10-31T04:32:18;13.60;82.00
25352;DHT22;13304;48.464;8.712;2022-10-31T04:34:44;13.60;82.00
25352;DHT22;13304;48.464;8.712;2022-10-31T04:37:09;13.60;81.90
25352;DHT22;13304;48.464;8.712;2022-10-31T04:39:37;13.50;81.80
25352;DHT22;13304;48.464;8.712;2022-10-31T04:42:03;13.50;81.80
25352;DHT22;13304;48.464;8.712;2022-10-31T04:44:28;13.50;81.60
25352;DHT22;13304;48.464;8.712;2022-10-31T04:46:54;13.50;81.70
25352;DHT22;13304;48.464;8.712;2022-10-31T04:49:19;13.50;81.60
25352;DHT22;13304;48.464;8.712;2022-10-31T04:51:45;13.40;81.50
25352;DHT22;13304;48.464;8.712;2022-10-31T04:54:10;13.40;81.60
25352;DHT22;13304;48.464;8.712;2022-10-31T04:56:36;13.40;81.70
25352;DHT22;13304;48.464;8.712;2022-10-31T04:59:01;13.40;81.70
25352;DHT22;13304;48.464;8.712;2022-10-31T05:01:27;13.40;81.50
25352;DHT22;13304;48.464;8.712;2022-10-31T05:03:53;13.30;81.50
25352;DHT22;13304;48.464;8.712;2022-10-31T05:06:18;13.30;81.50
25352;DHT22;13304;48.464;8.712;2022-10-31T05:08:44;13.30;81.50
25352;DHT22;13304;48.464;8.712;2022-10-31T05:11:09;13.20;81.50
25352;DHT22;13304;48.464;8.712;2022-10-31T05:13:35;13.20;81.50
25352;DHT22;13304;48.464;8.712;2022-10-31T05:16:01;13.20;81.50
25352;DHT22;13304;48.464;8.712;2022-10-31T05:18:26;13.20;81.40
25352;DHT22;13304;48.464;8.712;2022-10-31T05:20:52;13.20;81.50
25352;DHT22;13304;48.464;8.712;2022-10-31T05:23:17;13.20;81.60
25352;DHT22;13304;48.464;8.712;2022-10-31T05:25:43;13.10;81.60
25352;DHT22;13304;48.464;8.712;2022-10-31T05:28:09;13.10;81.70
25352;DHT22;13304;48.464;8.712;2022-10-31T05:30:34;13.10;81.70
25352;DHT22;13304;48.464;8.712;2022-10-31T05:33:00;13.10;81.80
25352;DHT22;13304;48.464;8.712;2022-10-31T05:35:29;13.10;81.80
25352;DHT22;13304;48.464;8.712;2022-10-31T05:37:55;13.10;81.90
25352;DHT22;13304;48.464;8.712;2022-10-31T05:40:21;13.10;82.00
25352;DHT22;13304;48.464;8.712;2022-10-31T05:42:47;13.00;82.00
25352;DHT22;13304;48.464;8.712;2022-10-31T05:45:14;13.00;82.00
25352;DHT22;13304;48.464;8.712;2022-10-31T05:47:40;13.00;82.10
25352;DHT22;13304;48.464;8.712;2022-10-31T05:50:06;13.00;82.10
25352;DHT22;13304;48.464;8.712;2022-10-31T05:52:32;13.00;82.20
25352;DHT22;13304;48.464;8.712;2022-10-31T05:54:58;13.00;82.20
25352;DHT22;13304;48.464;8.712;2022-10-31T05:57:23;13.00;82.10
25352;DHT22;13304;48.464;8.712;2022-10-31T05:59:49;13.00;82.00
25352;DHT22;13304;48.464;8.712;2022-10-31T06:02:21;13.00;82.10
25352;DHT22;13304;48.464;8.712;2022-10-31T06:04:46;13.00;82.00
25352;DHT22;13304;48.464;8.712;2022-10-31T06:07:12;13.00;82.00
25352;DHT22;13304;48.464;8.712;2022-10-31T06:09:38;13.00;81.90
25352;DHT22;13304;48.464;8.712;2022-10-31T06:12:03;13.00;81.90
25352;DHT22;13304;48.464;8.712;2022-10-31T06:14:29;12.90;81.90
25352;DHT22;13304;48.464;8.712;2022-10-31T06:16:55;12.90;81.90
25352;DHT22;13304;48.464;8.712;2022-10-31T06:19:20;12.90;81.90
25352;DHT22;13304;48.464;8.712;2022-10-31T06:21:46;12.90;82.00
25352;DHT22;13304;48.464;8.712;2022-10-31T06:24:12;12.90;82.10
25352;DHT22;13304;48.464;8.712;2022-10-31T06:26:37;12.90;82.20
25352;DHT22;13304;48.464;8.712;2022-10-31T06:29:03;12.90;82.30
25352;DHT22;13304;48.464;8.712;2022-10-31T06:31:29;12.80;82.20
25352;DHT22;13304;48.464;8.712;2022-10-31T06:33:54;12.80;82.30
25352;DHT22;13304;48.464;8.712;2022-10-31T06:36:20;12.80;82.40
25352;DHT22;13304;48.464;8.712;2022-10-31T06:38:45;12.80;82.40
25352;DHT22;13304;48.464;8.712;2022-10-31T06:41:11;12.80;82.40
25352;DHT22;13304;48.464;8.712;2022-10-31T06:43:37;12.80;82.40
25352;DHT22;13304;48.464;8.712;2022-10-31T06:46:03;12.80;82.50
25352;DHT22;13304;48.464;8.712;2022-10-31T06:48:28;12.80;82.40
25352;DHT22;13304;48.464;8.712;2022-10-31T06:50:57;12.80;82.30
25352;DHT22;13304;48.464;8.712;2022-10-31T06:53:22;12.80;82.40
25352;DHT22;13304;48.464;8.712;2022-10-31T06:55:48;12.80;82.30
25352;DHT22;13304;48.464;8.712;2022-10-31T06:58:14;12.80;82.30
25352;DHT22;13304;48.464;8.712;2022-10-31T07:00:39;12.80;82.30
25352;DHT22;13304;48.464;8.712;2022-10-31T07:03:06;12.80;82.40
25352;DHT22;13304;48.464;8.712;2022-10-31T07:05:32;12.80;82.50
25352;DHT22;13304;48.464;8.712;2022-10-31T07:07:58;12.80;82.60
25352;DHT22;13304;48.464;8.712;2022-10-31T07:10:25;12.80;82.60
25352;DHT22;13304;48.464;8.712;2022-10-31T07:12:58;12.80;82.80
25352;DHT22;13304;48.464;8.712;2022-10-31T07:15:24;12.80;82.90
25352;DHT22;13304;48.464;8.712;2022-10-31T07:17:50;12.80;83.00
25352;DHT22;13304;48.464;8.712;2022-10-31T07:20:16;12.80;83.10
25352;DHT22;13304;48.464;8.712;2022-10-31T07:22:41;12.80;83.10
25352;DHT22;13304;48.464;8.712;2022-10-31T07:25:07;12.80;83.30
25352;DHT22;13304;48.464;8.712;2022-10-31T07:27:39;12.80;83.50
25352;DHT22;13304;48.464;8.712;2022-10-31T07:30:09;12.80;83.60
25352;DHT22;13304;48.464;8.712;2022-10-31T07:32:42;12.80;84.50
25352;DHT22;13304;48.464;8.712;2022-10-31T07:35:09;12.90;83.90
25352;DHT22;13304;48.464;8.712;2022-10-31T07:37:35;12.90;84.10
25352;DHT22;13304;48.464;8.712;2022-10-31T07:40:01;12.90;84.20
25352;DHT22;13304;48.464;8.712;2022-10-31T07:42:26;12.90;84.40
25352;DHT22;13304;48.464;8.712;2022-10-31T07:44:52;13.00;84.50
25352;DHT22;13304;48.464;8.712;2022-10-31T07:47:18;13.10;84.70
25352;DHT22;13304;48.464;8.712;2022-10-31T07:49:43;13.10;84.80
25352;DHT22;13304;48.464;8.712;2022-10-31T07:52:09;13.20;84.90
25352;DHT22;13304;48.464;8.712;2022-10-31T07:54:34;13.20;84.90
25352;DHT22;13304;48.464;8.712;2022-10-31T07:57:00;13.30;85.00
25352;DHT22;13304;48.464;8.712;2022-10-31T07:59:25;13.30;84.90
25352;DHT22;13304;48.464;8.712;2022-10-31T08:01:52;13.40;85.00
25352;DHT22;13304;48.464;8.712;2022-10-31T08:04:18;13.40;85.00
25352;DHT22;13304;48.464;8.712;2022-10-31T08:06:43;13.40;85.00
25352;DHT22;13304;48.464;8.712;2022-10-31T08:09:09;13.50;84.80
25352;DHT22;13304;48.464;8.712;2022-10-31T08:11:35;13.50;84.90
25352;DHT22;13304;48.464;8.712;2022-10-31T08:14:00;13.50;84.80
25352;DHT22;13304;48.464;8.712;2022-10-31T08:16:26;13.60;85.00
25352;DHT22;13304;48.464;8.712;2022-10-31T08:18:52;13.60;85.10
25352;DHT22;13304;48.464;8.712;2022-10-31T08:21:19;13.70;85.20
25352;DHT22;13304;48.464;8.712;2022-10-31T08:23:45;13.70;85.30
25352;DHT22;13304;48.464;8.712;2022-10-31T08:26:10;13.80;85.60
25352;DHT22;13304;48.464;8.712;2022-10-31T08:28:36;13.80;85.50
25352;DHT22;13304;48.464;8.712;2022-10-31T08:31:01;13.90;85.60
25352;DHT22;13304;48.464;8.712;2022-10-31T08:33:27;13.90;85.60
25352;DHT22;13304;48.464;8.712;2022-10-31T08:35:53;13.90;85.50
25352;DHT22;13304;48.464;8.712;2022-10-31T08:38:18;14.00;85.60
25352;DHT22;13304;48.464;8.712;2022-10-31T08:40:47;14.10;85.60
25352;DHT22;13304;48.464;8.712;2022-10-31T08:43:14;14.10;85.60
25352;DHT22;13304;48.464;8.712;2022-10-31T08:45:40;14.20;85.50
25352;DHT22;13304;48.464;8.712;2022-10-31T08:48:08;14.20;85.30
25352;DHT22;13304;48.464;8.712;2022-10-31T08:50:34;14.30;85.40
25352;DHT22;13304;48.464;8.712;2022-10-31T08:53:01;14.30;85.60
25352;DHT22;13304;48.464;8.712;2022-10-31T08:55:26;14.40;85.80
25352;DHT22;13304;48.464;8.712;2022-10-31T08:57:58;14.40;85.90
25352;DHT22;13304;48.464;8.712;2022-10-31T09:00:24;14.50;86.10
25352;DHT22;13304;48.464;8.712;2022-10-31T09:03:03;14.50;86.20
25352;DHT22;13304;48.464;8.712;2022-10-31T09:05:29;14.60;86.40
25352;DHT22;13304;48.464;8.712;2022-10-31T09:07:55;14.70;87.20
25352;DHT22;13304;48.464;8.712;2022-10-31T09:10:22;14.70;86.40
25352;DHT22;13304;48.464;8.712;2022-10-31T09:12:54;14.80;86.50
25352;DHT22;13304;48.464;8.712;2022-10-31T09:15:19;14.90;86.70
25352;DHT22;13304;48.464;8.712;2022-10-31T09:17:48;15.00;86.50
25352;DHT22;13304;48.464;8.712;2022-10-31T09:20:14;15.00;86.70
25352;DHT22;13304;48.464;8.712;2022-10-31T09:22:39;15.10;86.60
25352;DHT22;13304;48.464;8.712;2022-10-31T09:25:05;15.20;86.80
25352;DHT22;13304;48.464;8.712;2022-10-31T09:27:31;15.30;86.60
25352;DHT22;13304;48.464;8.712;2022-10-31T09:29:56;15.30;86.90
25352;DHT22;13304;48.464;8.712;2022-10-31T09:32:22;15.40;86.70
25352;DHT22;13304;48.464;8.712;2022-10-31T09:34:47;15.40;86.70
25352;DHT22;13304;48.464;8.712;2022-10-31T09:37:13;15.50;86.90
25352;DHT22;13304;48.464;8.712;2022-10-31T09:39:39;15.60;87.10
25352;DHT22;13304;48.464;8.712;2022-10-31T09:52:45;15.90;87.20
25352;DHT22;13304;48.464;8.712;2022-10-31T09:55:12;15.90;87.40
25352;DHT22;13304;48.464;8.712;2022-10-31T09:57:39;16.10;87.40
25352;DHT22;13304;48.464;8.712;2022-10-31T10:00:07;16.10;86.90
25352;DHT22;13304;48.464;8.712;2022-10-31T10:02:36;16.20;86.60
25352;DHT22;13304;48.464;8.712;2022-10-31T10:05:03;16.20;86.60
25352;DHT22;13304;48.464;8.712;2022-10-31T10:07:35;16.30;86.90
25352;DHT22;13304;48.464;8.712;2022-10-31T10:10:51;16.40;87.20
25352;DHT22;13304;48.464;8.712;2022-10-31T10:18:09;16.60;87.00
25352;DHT22;13304;48.464;8.712;2022-10-31T10:20:44;16.70;87.40
25352;DHT22;13304;48.464;8.712;2022-10-31T10:25:55;16.80;87.40
25352;DHT22;13304;48.464;8.712;2022-10-31T10:28:32;17.00;87.60
25352;DHT22;13304;48.464;8.712;2022-10-31T10:36:43;17.20;87.60
25352;DHT22;13304;48.464;8.712;2022-10-31T10:39:00;17.20;87.70
25352;DHT22;13304;48.464;8.712;2022-10-31T10:41:31;17.30;87.50
25352;DHT22;13304;48.464;8.712;2022-10-31T10:43:57;17.40;87.20
25352;DHT22;13304;48.464;8.712;2022-10-31T10:49:36;17.50;87.50
25352;DHT22;13304;48.464;8.712;2022-10-31T10:54:41;17.70;85.80
25352;DHT22;13304;48.464;8.712;2022-10-31T10:59:48;17.80;85.60
25352;DHT22;13304;48.464;8.712;2022-10-31T11:02:25;17.90;86.40
25352;DHT22;13304;48.464;8.712;2022-10-31T11:04:54;17.90;86.40
25352;DHT22;13304;48.464;8.712;2022-10-31T11:07:20;18.00;85.90
25352;DHT22;13304;48.464;8.712;2022-10-31T11:09:45;18.00;86.00
25352;DHT22;13304;48.464;8.712;2022-10-31T11:12:26;18.00;84.10
25352;DHT22;13304;48.464;8.712;2022-10-31T11:14:54;18.10;85.20
25352;DHT22;13304;48.464;8.712;2022-10-31T11:17:34;18.10;84.20
25352;DHT22;13304;48.464;8.712;2022-10-31T11:20:06;18.20;85.10
25352;DHT22;13304;48.464;8.712;2022-10-31T11:22:43;18.20;85.10
25352;DHT22;13304;48.464;8.712;2022-10-31T11:25:21;18.30;85.10
25352;DHT22;13304;48.464;8.712;2022-10-31T11:28:04;18.30;86.00
25352;DHT22;13304;48.464;8.712;2022-10-31T11:30:30;18.40;86.30
25352;DHT22;13304;48.464;8.712;2022-10-31T11:32:56;18.40;84.60
25352;DHT22;13304;48.464;8.712;2022-10-31T11:35:22;18.40;84.60
25352;DHT22;13304;48.464;8.712;2022-10-31T11:37:49;18.50;82.80
25352;DHT22;13304;48.464;8.712;2022-10-31T11:40:17;18.50;84.60
25352;DHT22;13304;48.464;8.712;2022-10-31T11:42:43;18.50;83.10
25352;DHT22;13304;48.464;8.712;2022-10-31T11:45:29;18.60;85.20
25352;DHT22;13304;48.464;8.712;2022-10-31T11:47:55;18.60;85.40
25352;DHT22;13304;48.464;8.712;2022-10-31T11:50:23;18.60;85.10
25352;DHT22;13304;48.464;8.712;2022-10-31T11:52:49;18.70;85.70
25352;DHT22;13304;48.464;8.712;2022-10-31T11:55:16;18.70;85.70
25352;DHT22;13304;48.464;8.712;2022-10-31T11:57:48;18.70;84.80
25352;DHT22;13304;48.464;8.712;2022-10-31T12:03:59;18.80;85.70
25352;DHT22;13304;48.464;8.712;2022-10-31T12:05:58;18.80;85.90
25352;DHT22;13304;48.464;8.712;2022-10-31T12:08:24;18.80;85.30
25352;DHT22;13304;48.464;8.712;2022-10-31T12:11:01;18.80;85.60
25352;DHT22;13304;48.464;8.712;2022-10-31T12:13:31;18.80;85.70
25352;DHT22;13304;48.464;8.712;2022-10-31T12:26:59;18.90;85.00
25352;DHT22;13304;48.464;8.712;2022-10-31T12:29:25;18.90;85.10
25352;DHT22;13304;48.464;8.712;2022-10-31T12:31:59;18.90;86.00
25352;DHT22;13304;48.464;8.712;2022-10-31T12:44:35;18.90;85.40
25352;DHT22;13304;48.464;8.712;2022-10-31T12:52:12;18.90;84.10
25352;DHT22;13304;48.464;8.712;2022-10-31T12:57:16;18.90;85.20
25352;DHT22;13304;48.464;8.712;2022-10-31T13:02:20;19.00;85.70
25352;DHT22;13304;48.464;8.712;2022-10-31T13:04:58;19.00;85.90
25352;DHT22;13304;48.464;8.712;2022-10-31T13:10:13;19.10;86.00
25352;DHT22;13304;48.464;8.712;2022-10-31T13:12:40;19.10;86.00
25352;DHT22;13304;48.464;8.712;2022-10-31T13:15:23;19.20;85.80
25352;DHT22;13304;48.464;8.712;2022-10-31T13:17:51;19.20;85.70
25352;DHT22;13304;48.464;8.712;2022-10-31T13:20:23;19.20;85.70
25352;DHT22;13304;48.464;8.712;2022-10-31T13:25:44;19.30;85.00
25352;DHT22;13304;48.464;8.712;2022-10-31T13:30:42;19.30;85.50
25352;DHT22;13304;48.464;8.712;2022-10-31T13:33:16;19.30;85.60
25352;DHT22;13304;48.464;8.712;2022-10-31T13:35:50;19.40;85.70
25352;DHT22;13304;48.464;8.712;2022-10-31T13:43:57;19.40;85.00
25352;DHT22;13304;48.464;8.712;2022-10-31T13:49:00;19.40;81.80
25352;DHT22;13304;48.464;8.712;2022-10-31T13:51:33;19.40;83.50
25352;DHT22;13304;48.464;8.712;2022-10-31T13:54:06;19.40;83.20
25352;DHT22;13304;48.464;8.712;2022-10-31T13:56:47;19.40;83.60
25352;DHT22;13304;48.464;8.712;2022-10-31T13:59:18;19.40;84.00
25352;DHT22;13304;48.464;8.712;2022-10-31T14:01:49;19.40;80.30
25352;DHT22;13304;48.464;8.712;2022-10-31T14:04:16;19.40;81.80
25352;DHT22;13304;48.464;8.712;2022-10-31T14:06:51;19.40;82.60
25352;DHT22;13304;48.464;8.712;2022-10-31T14:11:47;19.40;81.30
25352;DHT22;13304;48.464;8.712;2022-10-31T14:14:13;19.40;82.20
25352;DHT22;13304;48.464;8.712;2022-10-31T14:16:39;19.40;82.10
25352;DHT22;13304;48.464;8.712;2022-10-31T14:19:06;19.30;80.00
25352;DHT22;13304;48.464;8.712;2022-10-31T14:21:43;19.30;82.40
25352;DHT22;13304;48.464;8.712;2022-10-31T14:29:21;19.30;83.40
25352;DHT22;13304;48.464;8.712;2022-10-31T14:34:42;19.30;83.30
25352;DHT22;13304;48.464;8.712;2022-10-31T14:39:44;19.20;83.40
25352;DHT22;13304;48.464;8.712;2022-10-31T14:42:26;19.10;83.30
25352;DHT22;13304;48.464;8.712;2022-10-31T14:50:09;19.10;83.10
25352;DHT22;13304;48.464;8.712;2022-10-31T14:52:38;19.00;82.80
25352;DHT22;13304;48.464;8.712;2022-10-31T14:55:05;19.00;83.50
25352;DHT22;13304;48.464;8.712;2022-10-31T14:57:32;19.00;82.80
25352;DHT22;13304;48.464;8.712;2022-10-31T15:00:00;18.90;83.20
25352;DHT22;13304;48.464;8.712;2022-10-31T15:02:41;18.90;83.00
25352;DHT22;13304;48.464;8.712;2022-10-31T15:05:10;18.90;83.80
25352;DHT22;13304;48.464;8.712;2022-10-31T15:07:36;18.90;83.80
25352;DHT22;13304;48.464;8.712;2022-10-31T15:10:20;18.90;84.10
25352;DHT22;13304;48.464;8.712;2022-10-31T15:12:46;18.90;83.90
25352;DHT22;13304;48.464;8.712;2022-10-31T15:15:14;18.90;83.80
25352;DHT22;13304;48.464;8.712;2022-10-31T15:17:44;18.90;84.00
25352;DHT22;13304;48.464;8.712;2022-10-31T15:20:11;18.90;83.80
25352;DHT22;13304;48.464;8.712;2022-10-31T15:22:37;18.90;83.90
25352;DHT22;13304;48.464;8.712;2022-10-31T15:25:02;18.90;83.60
25352;DHT22;13304;48.464;8.712;2022-10-31T15:27:28;18.90;84.10
25352;DHT22;13304;48.464;8.712;2022-10-31T15:29:55;18.90;84.70
25352;DHT22;13304;48.464;8.712;2022-10-31T15:32:22;18.90;83.60
25352;DHT22;13304;48.464;8.712;2022-10-31T15:34:48;18.90;84.30
25352;DHT22;13304;48.464;8.712;2022-10-31T15:37:24;18.90;84.10
25352;DHT22;13304;48.464;8.712;2022-10-31T15:39:50;18.90;84.30
25352;DHT22;13304;48.464;8.712;2022-10-31T15:42:27;18.90;84.10
25352;DHT22;13304;48.464;8.712;2022-10-31T15:47:53;18.90;84.20
25352;DHT22;13304;48.464;8.712;2022-10-31T15:50:21;18.80;84.20
25352;DHT22;13304;48.464;8.712;2022-10-31T15:52:48;18.80;84.10
25352;DHT22;13304;48.464;8.712;2022-10-31T15:55:22;18.70;83.90
25352;DHT22;13304;48.464;8.712;2022-10-31T15:57:50;18.80;84.00
25352;DHT22;13304;48.464;8.712;2022-10-31T16:02:47;18.70;83.80
25352;DHT22;13304;48.464;8.712;2022-10-31T16:05:17;18.60;83.70
25352;DHT22;13304;48.464;8.712;2022-10-31T16:07:50;18.50;83.60
25352;DHT22;13304;48.464;8.712;2022-10-31T16:10:26;18.50;83.60
25352;DHT22;13304;48.464;8.712;2022-10-31T16:12:52;18.40;83.50
25352;DHT22;13304;48.464;8.712;2022-10-31T16:15:19;18.40;83.50
25352;DHT22;13304;48.464;8.712;2022-10-31T16:17:45;18.30;83.50
25352;DHT22;13304;48.464;8.712;2022-10-31T16:20:18;18.20;83.40
25352;DHT22;13304;48.464;8.712;2022-10-31T16:22:47;18.20;83.60
25352;DHT22;13304;48.464;8.712;2022-10-31T16:27:39;18.10;83.50
25352;DHT22;13304;48.464;8.712;2022-10-31T16:32:57;17.90;83.60
25352;DHT22;13304;48.464;8.712;2022-10-31T16:35:25;17.90;83.70
25352;DHT22;13304;48.464;8.712;2022-10-31T16:37:51;17.80;83.60
25352;DHT22;13304;48.464;8.712;2022-10-31T16:40:17;17.80;83.70
25352;DHT22;13304;48.464;8.712;2022-10-31T16:42:43;17.70;83.70
25352;DHT22;13304;48.464;8.712;2022-10-31T16:45:23;17.70;83.80
25352;DHT22;13304;48.464;8.712;2022-10-31T16:47:49;17.60;83.80
25352;DHT22;13304;48.464;8.712;2022-10-31T16:50:16;17.60;83.90
25352;DHT22;13304;48.464;8.712;2022-10-31T16:52:42;17.50;84.00
25352;DHT22;13304;48.464;8.712;2022-10-31T16:55:12;17.50;84.00
25352;DHT22;13304;48.464;8.712;2022-10-31T16:57:38;17.50;84.10
25352;DHT22;13304;48.464;8.712;2022-10-31T17:00:05;17.40;84.60
25352;DHT22;13304;48.464;8.712;2022-10-31T17:02:31;17.40;84.70
25352;DHT22;13304;48.464;8.712;2022-10-31T17:04:56;17.40;84.50
25352;DHT22;13304;48.464;8.712;2022-10-31T17:07:22;17.30;84.50
25352;DHT22;13304;48.464;8.712;2022-10-31T17:09:47;17.30;84.60
25352;DHT22;13304;48.464;8.712;2022-10-31T17:12:14;17.30;84.60
25352;DHT22;13304;48.464;8.712;2022-10-31T17:14:41;17.30;84.60
25352;DHT22;13304;48.464;8.712;2022-10-31T17:17:08;17.30;84.60
25352;DHT22;13304;48.464;8.712;2022-10-31T17:19:33;17.20;84.50
25352;DHT22;13304;48.464;8.712;2022-10-31T17:22:00;17.20;84.50
25352;DHT22;13304;48.464;8.712;2022-10-31T17:24:26;17.20;84.60
25352;DHT22;13304;48.464;8.712;2022-10-31T17:26:52;17.20;84.50
25352;DHT22;13304;48.464;8.712;2022-10-31T17:29:17;17.10;84.30
25352;DHT22;13304;48.464;8.712;2022-10-31T17:31:43;17.20;84.40
25352;DHT22;13304;48.464;8.712;2022-10-31T17:34:09;17.10;84.30
25352;DHT22;13304;48.464;8.712;2022-10-31T17:36:35;17.10;84.40
25352;DHT22;13304;48.464;8.712;2022-10-31T17:39:00;17.00;84.20
25352;DHT22;13304;48.464;8.712;2022-10-31T17:41:27;17.00;84.20
25352;DHT22;13304;48.464;8.712;2022-10-31T17:43:54;17.00;84.10
25352;DHT22;13304;48.464;8.712;2022-10-31T17:46:20;16.90;83.80
25352;DHT22;13304;48.464;8.712;2022-10-31T17:48:45;16.90;84.30
25352;DHT22;13304;48.464;8.712;2022-10-31T17:51:11;16.80;84.10